sensor_id;sensor_type;location;lat;lon;timestamp;P1;durP1;ratioP1;P2;durP2;ratioP2
5412;SDS011;2729;50.056;8.678;2023-06-22T00:00:52;7.17;;;5.67;;
5412;SDS011;2729;50.056;8.678;2023-06-22T00:03:20;6.27;;;5.50;;
5412;SDS011;2729;50.056;8.678;2023-06-22T00:05:47;6.50;;;5.47;;
5412;SDS011;2729;50.056;8.678;2023-06-22T00:08:13;5.73;;;5.07;;
5412;SDS011;2729;50.056;8.678;2023-06-22T00:10:40;6.13;;;5.13;;
5412;SDS011;2729;50.056;8.678;2023-06-22T00:13:06;10.27;;;6.00;;
5412;SDS011;2729;50.056;8.678;2023-06-22T00:15:33;8.67;;;5.70;;
5412;SDS011;2729;50.056;8.678;2023-06-22T00:17:59;10.03;;;6.23;;
5412;SDS011;2729;50.056;8.678;2023-06-22T00:20:26;10.13;;;6.03;;
5412;SDS011;2729;50.056;8.678;2023-06-22T00:22:56;7.50;;;5.90;;
5412;SDS011;2729;50.056;8.678;2023-06-22T00:25:23;6.50;;;5.37;;
5412;SDS011;2729;50.056;8.678;2023-06-22T00:27:49;7.03;;;5.20;;
5412;SDS011;2729;50.056;8.678;2023-06-22T00:30:16;6.87;;;5.47;;
5412;SDS011;2729;50.056;8.678;2023-06-22T00:32:43;9.37;;;5.87;;
5412;SDS011;2729;50.056;8.678;2023-06-22T00:35:09;6.23;;;5.63;;
5412;SDS011;2729;50.056;8.678;2023-06-22T00:37:37;8.83;;;4.97;;
5412;SDS011;2729;50.056;8.678;2023-06-22T00:40:06;6.83;;;4.77;;
5412;SDS011;2729;50.056;8.678;2023-06-22T00:42:34;6.77;;;5.60;;
5412;SDS011;2729;50.056;8.678;2023-06-22T00:45:00;8.43;;;5.60;;
5412;SDS011;2729;50.056;8.678;2023-06-22T00:47:26;6.30;;;5.00;;
5412;SDS011;2729;50.056;8.678;2023-06-22T00:49:53;7.70;;;6.47;;
5412;SDS011;2729;50.056;8.678;2023-06-22T00:52:19;6.73;;;5.50;;
5412;SDS011;2729;50.056;8.678;2023-06-22T00:54:53;6.40;;;5.60;;
5412;SDS011;2729;50.056;8.678;2023-06-22T00:57:19;9.03;;;5.50;;
5412;SDS011;2729;50.056;8.678;2023-06-22T00:59:46;6.00;;;5.40;;
5412;SDS011;2729;50.056;8.678;2023-06-22T01:02:13;12.20;;;5.27;;
5412;SDS011;2729;50.056;8.678;2023-06-22T01:04:40;6.10;;;5.50;;
5412;SDS011;2729;50.056;8.678;2023-06-22T01:09:53;7.07;;;5.90;;
5412;SDS011;2729;50.056;8.678;2023-06-22T01:12:22;12.10;;;4.77;;
5412;SDS011;2729;50.056;8.678;2023-06-22T01:15:00;8.60;;;5.60;;
5412;SDS011;2729;50.056;8.678;2023-06-22T01:17:33;7.07;;;4.93;;
5412;SDS011;2729;50.056;8.678;2023-06-22T01:20:01;11.50;;;6.17;;
5412;SDS011;2729;50.056;8.678;2023-06-22T01:22:32;7.23;;;6.27;;
5412;SDS011;2729;50.056;8.678;2023-06-22T01:25:12;8.07;;;5.10;;
5412;SDS011;2729;50.056;8.678;2023-06-22T01:30:45;6.03;;;4.73;;
5412;SDS011;2729;50.056;8.678;2023-06-22T01:33:14;6.30;;;5.60;;
5412;SDS011;2729;50.056;8.678;2023-06-22T01:35:41;7.10;;;5.30;;
5412;SDS011;2729;50.056;8.678;2023-06-22T01:38:08;8.40;;;5.53;;
5412;SDS011;2729;50.056;8.678;2023-06-22T01:40:35;6.20;;;5.13;;
5412;SDS011;2729;50.056;8.678;2023-06-22T01:43:02;5.97;;;4.93;;
5412;SDS011;2729;50.056;8.678;2023-06-22T01:45:29;6.43;;;5.77;;
5412;SDS011;2729;50.056;8.678;2023-06-22T01:47:56;8.10;;;6.20;;
5412;SDS011;2729;50.056;8.678;2023-06-22T01:50:22;7.57;;;6.27;;
5412;SDS011;2729;50.056;8.678;2023-06-22T01:52:49;8.53;;;6.00;;
5412;SDS011;2729;50.056;8.678;2023-06-22T01:55:15;7.90;;;5.90;;
5412;SDS011;2729;50.056;8.678;2023-06-22T01:57:40;7.60;;;5.23;;
5412;SDS011;2729;50.056;8.678;2023-06-22T02:00:11;6.63;;;5.90;;
5412;SDS011;2729;50.056;8.678;2023-06-22T02:02:52;10.27;;;6.10;;
5412;SDS011;2729;50.056;8.678;2023-06-22T02:05:22;7.60;;;5.90;;
5412;SDS011;2729;50.056;8.678;2023-06-22T02:07:56;9.37;;;6.47;;
5412;SDS011;2729;50.056;8.678;2023-06-22T02:10:41;8.30;;;5.77;;
5412;SDS011;2729;50.056;8.678;2023-06-22T02:13:09;10.03;;;7.23;;
5412;SDS011;2729;50.056;8.678;2023-06-22T02:15:36;8.80;;;6.77;;
5412;SDS011;2729;50.056;8.678;2023-06-22T02:18:02;7.97;;;6.33;;
5412;SDS011;2729;50.056;8.678;2023-06-22T02:20:29;7.43;;;6.17;;
5412;SDS011;2729;50.056;8.678;2023-06-22T02:22:56;7.80;;;5.67;;
5412;SDS011;2729;50.056;8.678;2023-06-22T02:25:22;9.87;;;7.07;;
5412;SDS011;2729;50.056;8.678;2023-06-22T02:27:48;10.00;;;6.37;;
5412;SDS011;2729;50.056;8.678;2023-06-22T02:30:16;9.97;;;6.03;;
5412;SDS011;2729;50.056;8.678;2023-06-22T02:32:42;12.10;;;5.93;;
5412;SDS011;2729;50.056;8.678;2023-06-22T02:35:09;6.80;;;6.10;;
5412;SDS011;2729;50.056;8.678;2023-06-22T02:37:36;13.13;;;6.60;;
5412;SDS011;2729;50.056;8.678;2023-06-22T02:40:05;8.50;;;6.57;;
5412;SDS011;2729;50.056;8.678;2023-06-22T02:42:34;8.80;;;6.07;;
5412;SDS011;2729;50.056;8.678;2023-06-22T02:45:00;10.77;;;6.40;;
5412;SDS011;2729;50.056;8.678;2023-06-22T02:47:26;8.67;;;5.77;;
5412;SDS011;2729;50.056;8.678;2023-06-22T02:49:52;11.73;;;6.50;;
5412;SDS011;2729;50.056;8.678;2023-06-22T02:52:18;9.40;;;6.30;;
5412;SDS011;2729;50.056;8.678;2023-06-22T02:54:44;8.80;;;6.40;;
5412;SDS011;2729;50.056;8.678;2023-06-22T02:57:12;10.67;;;7.00;;
5412;SDS011;2729;50.056;8.678;2023-06-22T02:59:40;10.03;;;6.47;;
5412;SDS011;2729;50.056;8.678;2023-06-22T03:02:09;6.93;;;5.70;;
5412;SDS011;2729;50.056;8.678;2023-06-22T03:04:35;12.20;;;6.80;;
5412;SDS011;2729;50.056;8.678;2023-06-22T03:07:01;9.37;;;7.07;;
5412;SDS011;2729;50.056;8.678;2023-06-22T03:09:29;7.50;;;6.17;;
5412;SDS011;2729;50.056;8.678;2023-06-22T03:11:56;7.90;;;6.37;;
5412;SDS011;2729;50.056;8.678;2023-06-22T03:14:25;10.93;;;7.00;;
5412;SDS011;2729;50.056;8.678;2023-06-22T03:16:52;8.47;;;6.23;;
5412;SDS011;2729;50.056;8.678;2023-06-22T03:19:18;9.20;;;6.90;;
5412;SDS011;2729;50.056;8.678;2023-06-22T03:25:19;11.43;;;6.50;;
5412;SDS011;2729;50.056;8.678;2023-06-22T03:27:47;13.03;;;6.40;;
5412;SDS011;2729;50.056;8.678;2023-06-22T03:30:14;7.57;;;6.10;;
5412;SDS011;2729;50.056;8.678;2023-06-22T03:32:40;7.97;;;6.50;;
5412;SDS011;2729;50.056;8.678;2023-06-22T03:35:06;6.60;;;5.70;;
5412;SDS011;2729;50.056;8.678;2023-06-22T03:37:34;10.47;;;6.10;;
5412;SDS011;2729;50.056;8.678;2023-06-22T03:40:00;9.60;;;6.60;;
5412;SDS011;2729;50.056;8.678;2023-06-22T03:42:29;12.63;;;5.93;;
5412;SDS011;2729;50.056;8.678;2023-06-22T03:44:55;7.33;;;6.50;;
5412;SDS011;2729;50.056;8.678;2023-06-22T03:47:22;8.33;;;6.30;;
5412;SDS011;2729;50.056;8.678;2023-06-22T03:49:48;8.40;;;5.90;;
5412;SDS011;2729;50.056;8.678;2023-06-22T03:52:14;7.60;;;6.50;;
5412;SDS011;2729;50.056;8.678;2023-06-22T03:54:40;7.67;;;6.00;;
5412;SDS011;2729;50.056;8.678;2023-06-22T03:57:06;8.23;;;6.67;;
5412;SDS011;2729;50.056;8.678;2023-06-22T03:59:32;7.47;;;6.40;;
5412;SDS011;2729;50.056;8.678;2023-06-22T04:01:58;10.00;;;6.60;;
5412;SDS011;2729;50.056;8.678;2023-06-22T04:04:24;7.80;;;6.13;;
5412;SDS011;2729;50.056;8.678;2023-06-22T04:06:50;8.03;;;6.40;;
5412;SDS011;2729;50.056;8.678;2023-06-22T04:09:16;11.83;;;7.10;;
5412;SDS011;2729;50.056;8.678;2023-06-22T04:11:42;6.90;;;6.20;;
5412;SDS011;2729;50.056;8.678;2023-06-22T04:14:08;10.33;;;7.80;;
5412;SDS011;2729;50.056;8.678;2023-06-22T04:16:34;8.03;;;6.30;;
5412;SDS011;2729;50.056;8.678;2023-06-22T04:19:00;9.57;;;6.60;;
5412;SDS011;2729;50.056;8.678;2023-06-22T04:21:26;7.97;;;6.27;;
5412;SDS011;2729;50.056;8.678;2023-06-22T04:23:52;8.37;;;6.30;;
5412;SDS011;2729;50.056;8.678;2023-06-22T04:26:17;7.97;;;6.50;;
5412;SDS011;2729;50.056;8.678;2023-06-22T04:28:46;12.00;;;7.37;;
5412;SDS011;2729;50.056;8.678;2023-06-22T04:31:17;7.33;;;6.40;;
5412;SDS011;2729;50.056;8.678;2023-06-22T04:33:46;9.07;;;6.50;;
5412;SDS011;2729;50.056;8.678;2023-06-22T04:36:12;8.20;;;6.10;;
5412;SDS011;2729;50.056;8.678;2023-06-22T04:38:41;8.37;;;7.07;;
5412;SDS011;2729;50.056;8.678;2023-06-22T04:41:10;9.10;;;6.83;;
5412;SDS011;2729;50.056;8.678;2023-06-22T04:43:40;12.30;;;6.77;;
5412;SDS011;2729;50.056;8.678;2023-06-22T04:46:06;8.23;;;7.00;;
5412;SDS011;2729;50.056;8.678;2023-06-22T04:48:38;13.13;;;7.23;;
5412;SDS011;2729;50.056;8.678;2023-06-22T04:51:04;11.43;;;7.07;;
5412;SDS011;2729;50.056;8.678;2023-06-22T04:53:30;11.33;;;6.33;;
5412;SDS011;2729;50.056;8.678;2023-06-22T04:55:57;9.37;;;7.00;;
5412;SDS011;2729;50.056;8.678;2023-06-22T04:58:23;8.73;;;6.70;;
5412;SDS011;2729;50.056;8.678;2023-06-22T05:00:52;8.27;;;6.73;;
5412;SDS011;2729;50.056;8.678;2023-06-22T05:03:18;9.53;;;6.33;;
5412;SDS011;2729;50.056;8.678;2023-06-22T05:05:44;7.50;;;6.27;;
5412;SDS011;2729;50.056;8.678;2023-06-22T05:08:10;9.77;;;6.93;;
5412;SDS011;2729;50.056;8.678;2023-06-22T05:10:36;7.10;;;6.40;;
5412;SDS011;2729;50.056;8.678;2023-06-22T05:13:02;10.03;;;7.10;;
5412;SDS011;2729;50.056;8.678;2023-06-22T05:15:28;8.20;;;6.77;;
5412;SDS011;2729;50.056;8.678;2023-06-22T05:17:56;10.60;;;6.50;;
5412;SDS011;2729;50.056;8.678;2023-06-22T05:20:22;9.33;;;7.40;;
5412;SDS011;2729;50.056;8.678;2023-06-22T05:22:48;7.50;;;6.70;;
5412;SDS011;2729;50.056;8.678;2023-06-22T05:25:14;10.63;;;6.80;;
5412;SDS011;2729;50.056;8.678;2023-06-22T05:27:40;9.93;;;6.83;;
5412;SDS011;2729;50.056;8.678;2023-06-22T05:30:06;9.97;;;7.40;;
5412;SDS011;2729;50.056;8.678;2023-06-22T05:32:34;11.83;;;7.10;;
5412;SDS011;2729;50.056;8.678;2023-06-22T05:35:00;8.70;;;7.27;;
5412;SDS011;2729;50.056;8.678;2023-06-22T05:37:26;13.43;;;6.60;;
5412;SDS011;2729;50.056;8.678;2023-06-22T05:39:52;10.13;;;6.80;;
5412;SDS011;2729;50.056;8.678;2023-06-22T05:42:19;9.40;;;7.70;;
5412;SDS011;2729;50.056;8.678;2023-06-22T05:44:45;8.70;;;6.33;;
5412;SDS011;2729;50.056;8.678;2023-06-22T05:47:12;12.63;;;6.97;;
5412;SDS011;2729;50.056;8.678;2023-06-22T05:49:38;11.33;;;8.00;;
5412;SDS011;2729;50.056;8.678;2023-06-22T05:52:04;10.87;;;6.77;;
5412;SDS011;2729;50.056;8.678;2023-06-22T05:54:31;9.37;;;6.40;;
5412;SDS011;2729;50.056;8.678;2023-06-22T05:56:56;7.23;;;6.53;;
5412;SDS011;2729;50.056;8.678;2023-06-22T05:59:22;10.53;;;6.50;;
5412;SDS011;2729;50.056;8.678;2023-06-22T06:01:48;9.33;;;6.57;;
5412;SDS011;2729;50.056;8.678;2023-06-22T06:04:19;9.90;;;6.90;;
5412;SDS011;2729;50.056;8.678;2023-06-22T06:06:46;10.60;;;6.90;;
5412;SDS011;2729;50.056;8.678;2023-06-22T06:09:14;9.57;;;7.13;;
5412;SDS011;2729;50.056;8.678;2023-06-22T06:11:43;8.70;;;6.90;;
5412;SDS011;2729;50.056;8.678;2023-06-22T06:14:09;8.00;;;7.20;;
5412;SDS011;2729;50.056;8.678;2023-06-22T06:16:35;8.67;;;6.90;;
5412;SDS011;2729;50.056;8.678;2023-06-22T06:19:01;8.17;;;5.97;;
5412;SDS011;2729;50.056;8.678;2023-06-22T06:21:27;7.20;;;6.23;;
5412;SDS011;2729;50.056;8.678;2023-06-22T06:27:37;7.23;;;6.20;;
5412;SDS011;2729;50.056;8.678;2023-06-22T06:30:03;6.50;;;5.67;;
5412;SDS011;2729;50.056;8.678;2023-06-22T06:32:29;7.73;;;6.87;;
5412;SDS011;2729;50.056;8.678;2023-06-22T06:34:55;17.73;;;7.00;;
5412;SDS011;2729;50.056;8.678;2023-06-22T06:37:21;11.83;;;6.90;;
5412;SDS011;2729;50.056;8.678;2023-06-22T06:39:47;10.77;;;7.40;;
5412;SDS011;2729;50.056;8.678;2023-06-22T06:42:13;7.50;;;6.60;;
5412;SDS011;2729;50.056;8.678;2023-06-22T06:44:40;7.93;;;6.70;;
5412;SDS011;2729;50.056;8.678;2023-06-22T06:47:06;7.97;;;6.17;;
5412;SDS011;2729;50.056;8.678;2023-06-22T06:49:33;7.97;;;6.47;;
5412;SDS011;2729;50.056;8.678;2023-06-22T06:51:59;9.10;;;6.30;;
5412;SDS011;2729;50.056;8.678;2023-06-22T06:54:25;9.37;;;6.13;;
5412;SDS011;2729;50.056;8.678;2023-06-22T06:56:51;8.70;;;6.57;;
5412;SDS011;2729;50.056;8.678;2023-06-22T07:06:58;8.90;;;6.30;;
5412;SDS011;2729;50.056;8.678;2023-06-22T07:09:27;10.90;;;7.80;;
5412;SDS011;2729;50.056;8.678;2023-06-22T07:11:53;10.83;;;7.27;;
5412;SDS011;2729;50.056;8.678;2023-06-22T07:14:18;9.67;;;6.87;;
5412;SDS011;2729;50.056;8.678;2023-06-22T07:16:46;8.53;;;6.23;;
5412;SDS011;2729;50.056;8.678;2023-06-22T07:19:12;10.53;;;6.43;;
5412;SDS011;2729;50.056;8.678;2023-06-22T07:21:39;8.37;;;6.40;;
5412;SDS011;2729;50.056;8.678;2023-06-22T07:24:07;11.20;;;6.00;;
5412;SDS011;2729;50.056;8.678;2023-06-22T07:26:33;15.83;;;6.40;;
5412;SDS011;2729;50.056;8.678;2023-06-22T07:28:59;6.97;;;6.30;;
5412;SDS011;2729;50.056;8.678;2023-06-22T07:31:25;10.97;;;6.10;;
5412;SDS011;2729;50.056;8.678;2023-06-22T07:33:52;10.67;;;7.23;;
5412;SDS011;2729;50.056;8.678;2023-06-22T07:36:18;6.67;;;5.77;;
5412;SDS011;2729;50.056;8.678;2023-06-22T07:38:44;7.70;;;5.60;;
5412;SDS011;2729;50.056;8.678;2023-06-22T07:41:10;6.80;;;6.03;;
5412;SDS011;2729;50.056;8.678;2023-06-22T07:43:36;10.60;;;7.43;;
5412;SDS011;2729;50.056;8.678;2023-06-22T07:46:03;9.53;;;6.70;;
5412;SDS011;2729;50.056;8.678;2023-06-22T07:48:29;10.63;;;6.80;;
5412;SDS011;2729;50.056;8.678;2023-06-22T07:50:56;7.20;;;6.50;;
5412;SDS011;2729;50.056;8.678;2023-06-22T07:53:22;9.20;;;7.43;;
5412;SDS011;2729;50.056;8.678;2023-06-22T07:55:50;13.93;;;7.70;;
5412;SDS011;2729;50.056;8.678;2023-06-22T07:58:16;8.43;;;6.47;;
5412;SDS011;2729;50.056;8.678;2023-06-22T08:00:44;9.43;;;7.07;;
5412;SDS011;2729;50.056;8.678;2023-06-22T08:03:10;6.47;;;5.77;;
5412;SDS011;2729;50.056;8.678;2023-06-22T08:05:36;7.57;;;6.43;;
5412;SDS011;2729;50.056;8.678;2023-06-22T08:08:02;9.83;;;7.30;;
5412;SDS011;2729;50.056;8.678;2023-06-22T08:13:11;11.13;;;6.90;;
5412;SDS011;2729;50.056;8.678;2023-06-22T08:15:37;13.03;;;8.10;;
5412;SDS011;2729;50.056;8.678;2023-06-22T08:18:03;7.57;;;6.77;;
5412;SDS011;2729;50.056;8.678;2023-06-22T08:20:29;6.73;;;5.63;;
5412;SDS011;2729;50.056;8.678;2023-06-22T08:22:55;10.70;;;7.27;;
5412;SDS011;2729;50.056;8.678;2023-06-22T08:25:23;12.93;;;7.40;;
5412;SDS011;2729;50.056;8.678;2023-06-22T08:27:49;8.40;;;6.63;;
5412;SDS011;2729;50.056;8.678;2023-06-22T08:30:15;10.00;;;7.60;;
5412;SDS011;2729;50.056;8.678;2023-06-22T08:32:43;8.53;;;6.40;;
5412;SDS011;2729;50.056;8.678;2023-06-22T08:35:09;9.23;;;7.10;;
5412;SDS011;2729;50.056;8.678;2023-06-22T08:37:35;9.63;;;6.70;;
5412;SDS011;2729;50.056;8.678;2023-06-22T08:40:02;6.47;;;5.80;;
5412;SDS011;2729;50.056;8.678;2023-06-22T08:42:34;9.40;;;7.57;;
5412;SDS011;2729;50.056;8.678;2023-06-22T08:45:00;10.10;;;7.20;;
5412;SDS011;2729;50.056;8.678;2023-06-22T08:47:29;8.03;;;6.50;;
5412;SDS011;2729;50.056;8.678;2023-06-22T08:49:55;10.00;;;7.10;;
5412;SDS011;2729;50.056;8.678;2023-06-22T08:52:22;10.20;;;7.60;;
5412;SDS011;2729;50.056;8.678;2023-06-22T08:54:49;8.13;;;6.60;;
5412;SDS011;2729;50.056;8.678;2023-06-22T08:57:15;8.27;;;6.67;;
5412;SDS011;2729;50.056;8.678;2023-06-22T08:59:42;6.93;;;6.30;;
5412;SDS011;2729;50.056;8.678;2023-06-22T09:02:08;9.10;;;6.60;;
5412;SDS011;2729;50.056;8.678;2023-06-22T09:04:34;13.50;;;7.50;;
5412;SDS011;2729;50.056;8.678;2023-06-22T09:07:00;7.47;;;6.77;;
5412;SDS011;2729;50.056;8.678;2023-06-22T09:09:27;8.27;;;6.10;;
5412;SDS011;2729;50.056;8.678;2023-06-22T09:11:53;7.93;;;6.03;;
5412;SDS011;2729;50.056;8.678;2023-06-22T09:14:19;10.00;;;6.60;;
5412;SDS011;2729;50.056;8.678;2023-06-22T09:16:45;8.27;;;6.60;;
5412;SDS011;2729;50.056;8.678;2023-06-22T09:19:12;10.27;;;7.13;;
5412;SDS011;2729;50.056;8.678;2023-06-22T09:21:38;6.93;;;5.87;;
5412;SDS011;2729;50.056;8.678;2023-06-22T09:24:04;11.67;;;7.53;;
5412;SDS011;2729;50.056;8.678;2023-06-22T09:26:30;6.03;;;5.40;;
5412;SDS011;2729;50.056;8.678;2023-06-22T09:28:56;9.60;;;7.60;;
5412;SDS011;2729;50.056;8.678;2023-06-22T09:31:23;7.70;;;6.90;;
5412;SDS011;2729;50.056;8.678;2023-06-22T09:33:54;7.77;;;5.93;;
5412;SDS011;2729;50.056;8.678;2023-06-22T09:36:23;14.20;;;6.03;;
5412;SDS011;2729;50.056;8.678;2023-06-22T09:38:49;9.53;;;6.50;;
5412;SDS011;2729;50.056;8.678;2023-06-22T09:41:21;7.70;;;5.90;;
5412;SDS011;2729;50.056;8.678;2023-06-22T09:43:48;8.77;;;6.43;;
5412;SDS011;2729;50.056;8.678;2023-06-22T09:46:17;5.73;;;4.70;;
5412;SDS011;2729;50.056;8.678;2023-06-22T09:48:43;6.40;;;5.47;;
5412;SDS011;2729;50.056;8.678;2023-06-22T09:51:09;8.90;;;6.20;;
5412;SDS011;2729;50.056;8.678;2023-06-22T09:53:35;7.03;;;6.33;;
5412;SDS011;2729;50.056;8.678;2023-06-22T09:56:01;7.63;;;6.67;;
5412;SDS011;2729;50.056;8.678;2023-06-22T09:58:27;7.57;;;6.23;;
5412;SDS011;2729;50.056;8.678;2023-06-22T10:00:53;10.70;;;6.03;;
5412;SDS011;2729;50.056;8.678;2023-06-22T10:03:20;7.60;;;6.40;;
5412;SDS011;2729;50.056;8.678;2023-06-22T10:05:46;8.40;;;5.40;;
5412;SDS011;2729;50.056;8.678;2023-06-22T10:08:14;8.53;;;6.70;;
5412;SDS011;2729;50.056;8.678;2023-06-22T10:10:39;11.73;;;7.13;;
5412;SDS011;2729;50.056;8.678;2023-06-22T10:13:08;11.17;;;7.07;;
5412;SDS011;2729;50.056;8.678;2023-06-22T10:15:38;11.30;;;6.23;;
5412;SDS011;2729;50.056;8.678;2023-06-22T10:18:04;7.23;;;6.10;;
5412;SDS011;2729;50.056;8.678;2023-06-22T10:20:30;6.20;;;5.60;;
5412;SDS011;2729;50.056;8.678;2023-06-22T10:22:56;5.60;;;5.07;;
5412;SDS011;2729;50.056;8.678;2023-06-22T10:25:22;6.90;;;6.00;;
5412;SDS011;2729;50.056;8.678;2023-06-22T10:27:48;8.07;;;5.87;;
5412;SDS011;2729;50.056;8.678;2023-06-22T10:30:14;6.47;;;5.40;;
5412;SDS011;2729;50.056;8.678;2023-06-22T10:32:41;7.83;;;6.47;;
5412;SDS011;2729;50.056;8.678;2023-06-22T10:39:10;6.63;;;5.93;;
5412;SDS011;2729;50.056;8.678;2023-06-22T10:41:36;7.90;;;6.00;;
5412;SDS011;2729;50.056;8.678;2023-06-22T10:44:02;7.20;;;4.80;;
5412;SDS011;2729;50.056;8.678;2023-06-22T10:46:29;5.20;;;4.70;;
5412;SDS011;2729;50.056;8.678;2023-06-22T10:48:55;6.13;;;5.53;;
5412;SDS011;2729;50.056;8.678;2023-06-22T10:51:22;6.90;;;6.30;;
5412;SDS011;2729;50.056;8.678;2023-06-22T10:53:48;6.67;;;5.83;;
5412;SDS011;2729;50.056;8.678;2023-06-22T10:56:14;6.10;;;5.50;;
5412;SDS011;2729;50.056;8.678;2023-06-22T10:58:40;6.70;;;5.07;;
5412;SDS011;2729;50.056;8.678;2023-06-22T11:01:06;7.70;;;6.40;;
5412;SDS011;2729;50.056;8.678;2023-06-22T11:03:32;7.63;;;5.93;;
5412;SDS011;2729;50.056;8.678;2023-06-22T11:05:58;8.40;;;5.33;;
5412;SDS011;2729;50.056;8.678;2023-06-22T11:08:24;6.70;;;4.80;;
5412;SDS011;2729;50.056;8.678;2023-06-22T11:10:50;8.30;;;6.43;;
5412;SDS011;2729;50.056;8.678;2023-06-22T11:13:17;6.63;;;5.83;;
5412;SDS011;2729;50.056;8.678;2023-06-22T11:15:43;7.90;;;6.10;;
5412;SDS011;2729;50.056;8.678;2023-06-22T11:18:09;15.37;;;6.70;;
5412;SDS011;2729;50.056;8.678;2023-06-22T11:20:35;6.10;;;5.33;;
5412;SDS011;2729;50.056;8.678;2023-06-22T11:23:04;8.03;;;5.73;;
5412;SDS011;2729;50.056;8.678;2023-06-22T11:25:35;7.70;;;5.67;;
5412;SDS011;2729;50.056;8.678;2023-06-22T11:28:02;10.20;;;6.00;;
5412;SDS011;2729;50.056;8.678;2023-06-22T11:30:28;10.67;;;6.40;;
5412;SDS011;2729;50.056;8.678;2023-06-22T11:32:56;10.20;;;6.73;;
5412;SDS011;2729;50.056;8.678;2023-06-22T11:35:22;6.97;;;6.10;;
5412;SDS011;2729;50.056;8.678;2023-06-22T11:37:48;14.37;;;6.37;;
5412;SDS011;2729;50.056;8.678;2023-06-22T11:40:14;5.70;;;4.90;;
5412;SDS011;2729;50.056;8.678;2023-06-22T11:45:43;12.30;;;5.10;;
5412;SDS011;2729;50.056;8.678;2023-06-22T11:48:09;6.13;;;5.17;;
5412;SDS011;2729;50.056;8.678;2023-06-22T11:50:35;8.17;;;4.70;;
5412;SDS011;2729;50.056;8.678;2023-06-22T11:53:02;8.27;;;6.30;;
5412;SDS011;2729;50.056;8.678;2023-06-22T11:55:31;5.30;;;4.60;;
5412;SDS011;2729;50.056;8.678;2023-06-22T11:57:57;10.73;;;5.57;;
5412;SDS011;2729;50.056;8.678;2023-06-22T12:00:29;6.03;;;4.83;;
5412;SDS011;2729;50.056;8.678;2023-06-22T12:02:55;10.20;;;5.03;;
5412;SDS011;2729;50.056;8.678;2023-06-22T12:05:21;6.20;;;4.70;;
5412;SDS011;2729;50.056;8.678;2023-06-22T12:07:48;6.33;;;5.30;;
5412;SDS011;2729;50.056;8.678;2023-06-22T12:10:15;8.13;;;6.17;;
5412;SDS011;2729;50.056;8.678;2023-06-22T12:12:43;6.80;;;5.30;;
5412;SDS011;2729;50.056;8.678;2023-06-22T12:15:09;10.90;;;4.90;;
5412;SDS011;2729;50.056;8.678;2023-06-22T12:17:36;8.97;;;5.37;;
5412;SDS011;2729;50.056;8.678;2023-06-22T12:20:02;7.60;;;5.83;;
5412;SDS011;2729;50.056;8.678;2023-06-22T12:22:32;7.87;;;5.10;;
5412;SDS011;2729;50.056;8.678;2023-06-22T12:24:58;19.60;;;5.53;;
5412;SDS011;2729;50.056;8.678;2023-06-22T12:27:24;8.80;;;5.30;;
5412;SDS011;2729;50.056;8.678;2023-06-22T12:29:51;7.30;;;6.40;;
5412;SDS011;2729;50.056;8.678;2023-06-22T12:32:17;10.00;;;6.27;;
5412;SDS011;2729;50.056;8.678;2023-06-22T12:34:43;10.30;;;5.53;;
5412;SDS011;2729;50.056;8.678;2023-06-22T12:37:10;7.43;;;5.80;;
5412;SDS011;2729;50.056;8.678;2023-06-22T12:39:36;7.80;;;6.10;;
5412;SDS011;2729;50.056;8.678;2023-06-22T12:42:02;12.83;;;5.77;;
5412;SDS011;2729;50.056;8.678;2023-06-22T12:44:28;10.50;;;5.87;;
5412;SDS011;2729;50.056;8.678;2023-06-22T12:46:54;7.10;;;5.40;;
5412;SDS011;2729;50.056;8.678;2023-06-22T12:49:20;9.53;;;6.30;;
5412;SDS011;2729;50.056;8.678;2023-06-22T12:51:46;8.57;;;5.90;;
5412;SDS011;2729;50.056;8.678;2023-06-22T12:54:12;7.30;;;5.70;;
5412;SDS011;2729;50.056;8.678;2023-06-22T12:56:38;8.73;;;5.90;;
5412;SDS011;2729;50.056;8.678;2023-06-22T12:59:04;6.40;;;5.80;;
5412;SDS011;2729;50.056;8.678;2023-06-22T13:01:30;7.70;;;5.20;;
5412;SDS011;2729;50.056;8.678;2023-06-22T13:04:00;12.67;;;5.40;;
5412;SDS011;2729;50.056;8.678;2023-06-22T13:06:26;11.00;;;6.80;;
5412;SDS011;2729;50.056;8.678;2023-06-22T13:08:52;6.33;;;5.20;;
5412;SDS011;2729;50.056;8.678;2023-06-22T13:11:18;9.00;;;5.77;;
5412;SDS011;2729;50.056;8.678;2023-06-22T13:13:44;9.90;;;5.97;;
5412;SDS011;2729;50.056;8.678;2023-06-22T13:16:11;12.83;;;6.40;;
5412;SDS011;2729;50.056;8.678;2023-06-22T13:18:37;9.03;;;5.20;;
5412;SDS011;2729;50.056;8.678;2023-06-22T13:21:03;10.03;;;5.57;;
5412;SDS011;2729;50.056;8.678;2023-06-22T13:23:30;8.23;;;5.70;;
5412;SDS011;2729;50.056;8.678;2023-06-22T13:25:57;9.00;;;6.27;;
5412;SDS011;2729;50.056;8.678;2023-06-22T13:28:23;7.87;;;5.80;;
5412;SDS011;2729;50.056;8.678;2023-06-22T13:30:49;9.57;;;5.53;;
5412;SDS011;2729;50.056;8.678;2023-06-22T13:33:15;12.30;;;6.17;;
5412;SDS011;2729;50.056;8.678;2023-06-22T13:35:42;6.27;;;5.63;;
5412;SDS011;2729;50.056;8.678;2023-06-22T13:38:10;11.27;;;5.57;;
5412;SDS011;2729;50.056;8.678;2023-06-22T13:40:37;6.40;;;5.73;;
5412;SDS011;2729;50.056;8.678;2023-06-22T13:43:06;7.07;;;5.53;;
5412;SDS011;2729;50.056;8.678;2023-06-22T13:45:32;7.10;;;5.30;;
5412;SDS011;2729;50.056;8.678;2023-06-22T13:47:58;8.73;;;6.00;;
5412;SDS011;2729;50.056;8.678;2023-06-22T13:50:24;9.77;;;6.60;;
5412;SDS011;2729;50.056;8.678;2023-06-22T13:52:50;8.53;;;5.53;;
5412;SDS011;2729;50.056;8.678;2023-06-22T13:55:16;6.83;;;5.53;;
5412;SDS011;2729;50.056;8.678;2023-06-22T13:57:42;6.97;;;5.50;;
5412;SDS011;2729;50.056;8.678;2023-06-22T14:00:08;7.47;;;5.57;;
5412;SDS011;2729;50.056;8.678;2023-06-22T14:02:38;8.53;;;5.90;;
5412;SDS011;2729;50.056;8.678;2023-06-22T14:05:05;6.27;;;5.27;;
5412;SDS011;2729;50.056;8.678;2023-06-22T14:07:31;8.70;;;5.60;;
5412;SDS011;2729;50.056;8.678;2023-06-22T14:09:57;8.17;;;5.73;;
5412;SDS011;2729;50.056;8.678;2023-06-22T14:12:24;5.20;;;4.70;;
5412;SDS011;2729;50.056;8.678;2023-06-22T14:14:50;10.50;;;4.50;;
5412;SDS011;2729;50.056;8.678;2023-06-22T14:17:16;13.73;;;5.23;;
5412;SDS011;2729;50.056;8.678;2023-06-22T14:19:42;9.83;;;5.17;;
5412;SDS011;2729;50.056;8.678;2023-06-22T14:22:08;7.17;;;5.03;;
5412;SDS011;2729;50.056;8.678;2023-06-22T14:24:34;9.80;;;4.60;;
5412;SDS011;2729;50.056;8.678;2023-06-22T14:26:59;5.53;;;4.43;;
5412;SDS011;2729;50.056;8.678;2023-06-22T14:29:28;9.37;;;4.67;;
5412;SDS011;2729;50.056;8.678;2023-06-22T14:31:54;5.40;;;4.37;;
5412;SDS011;2729;50.056;8.678;2023-06-22T14:34:20;12.30;;;4.07;;
5412;SDS011;2729;50.056;8.678;2023-06-22T14:36:46;14.70;;;4.03;;
5412;SDS011;2729;50.056;8.678;2023-06-22T14:39:11;5.53;;;3.67;;
5412;SDS011;2729;50.056;8.678;2023-06-22T14:41:37;12.10;;;4.70;;
5412;SDS011;2729;50.056;8.678;2023-06-22T14:44:03;9.10;;;3.83;;
5412;SDS011;2729;50.056;8.678;2023-06-22T14:46:29;8.93;;;3.50;;
5412;SDS011;2729;50.056;8.678;2023-06-22T14:48:55;10.73;;;4.10;;
5412;SDS011;2729;50.056;8.678;2023-06-22T14:51:21;7.27;;;3.63;;
5412;SDS011;2729;50.056;8.678;2023-06-22T14:53:47;12.17;;;3.80;;
5412;SDS011;2729;50.056;8.678;2023-06-22T14:56:13;5.10;;;3.13;;
5412;SDS011;2729;50.056;8.678;2023-06-22T14:58:41;6.27;;;3.90;;
5412;SDS011;2729;50.056;8.678;2023-06-22T15:01:11;11.43;;;4.30;;
5412;SDS011;2729;50.056;8.678;2023-06-22T15:03:37;9.47;;;3.30;;
5412;SDS011;2729;50.056;8.678;2023-06-22T15:06:03;6.10;;;3.80;;
5412;SDS011;2729;50.056;8.678;2023-06-22T15:08:29;7.13;;;3.63;;
5412;SDS011;2729;50.056;8.678;2023-06-22T15:10:58;13.33;;;4.50;;
5412;SDS011;2729;50.056;8.678;2023-06-22T15:13:24;7.00;;;3.77;;
5412;SDS011;2729;50.056;8.678;2023-06-22T15:15:50;12.03;;;5.33;;
5412;SDS011;2729;50.056;8.678;2023-06-22T15:18:17;7.07;;;4.30;;
5412;SDS011;2729;50.056;8.678;2023-06-22T15:20:43;7.60;;;4.03;;
5412;SDS011;2729;50.056;8.678;2023-06-22T15:23:11;7.30;;;4.90;;
5412;SDS011;2729;50.056;8.678;2023-06-22T15:25:37;8.37;;;3.80;;
5412;SDS011;2729;50.056;8.678;2023-06-22T15:28:04;9.80;;;3.83;;
5412;SDS011;2729;50.056;8.678;2023-06-22T15:30:29;10.70;;;3.70;;
5412;SDS011;2729;50.056;8.678;2023-06-22T15:32:56;6.33;;;3.63;;
5412;SDS011;2729;50.056;8.678;2023-06-22T15:35:23;8.73;;;4.73;;
5412;SDS011;2729;50.056;8.678;2023-06-22T15:37:49;12.83;;;3.67;;
5412;SDS011;2729;50.056;8.678;2023-06-22T15:40:16;6.00;;;3.70;;